This is the latest recevied weather packets stored in our database for station/object WK7G. If no packets are shown the sender has not sent any weather packets the latest 10 day(s).
| Time | Temp. | Humidity | Pressure | Rain* | Wind** | Luminosity | Snow |
|---|---|---|---|---|---|---|---|
| 1777941340 | 13.89° C | 49% | 1002.2 hPa | 0 mm | - | 220 W/m² | - |
| 1777941038 | 13.89° C | 43% | 1002.2 hPa | 0 mm | - | 106 W/m² | - |
| 1777940738 | 12.78° C | 51% | 1002.2 hPa | 0 mm | - | 135 W/m² | - |
| 1777940437 | 12.78° C | 50% | 1002.6 hPa | 0 mm | - | 136 W/m² | - |
| 1777940134 | 13.33° C | 52% | 1002.7 hPa | 0 mm | - | 304 W/m² | - |
| 1777939831 | 12.78° C | 54% | 1002.8 hPa | 0 mm | - | 208 W/m² | - |
| 1777939529 | 12.22° C | 56% | 1002.4 hPa | 0 mm | - | 62 W/m² | - |
| 1777939226 | 13.89° C | 52% | 1002.4 hPa | 0 mm | - | 25 W/m² | - |
| 1777938923 | 15.56° C | 41% | 1001.5 hPa | 0 mm | - | 24 W/m² | - |
| 1777938619 | 16.11° C | 41% | 1001.3 hPa | 0 mm | - | 37 W/m² | - |
| 1777938316 | 16.11° C | 40% | 1001 hPa | 0 mm | - | 56 W/m² | - |
| 1777938013 | 16.11° C | 40% | 1000.9 hPa | 0 mm | - | 80 W/m² | - |
| 1777937708 | 16.67° C | 38% | 1001 hPa | 0 mm | - | 96 W/m² | - |
| 1777937406 | 16.67° C | 38% | 1000.9 hPa | 0 mm | - | 112 W/m² | - |
| 1777937103 | 17.22° C | 36% | 1001 hPa | 0 mm | - | 145 W/m² | - |
| 1777936800 | 17.22° C | 34% | 1000.9 hPa | 0 mm | - | 366 W/m² | - |
| 1777936496 | 17.22° C | 34% | 1001.2 hPa | 0 mm | - | 347 W/m² | - |
| 1777936193 | 16.67° C | 40% | 1001.3 hPa | 0 mm | - | 278 W/m² | - |
| 1777935889 | 16.67° C | 40% | 1001 hPa | 0 mm | - | 130 W/m² | - |
| 1777935589 | 16.67° C | 37% | 1001.3 hPa | 0 mm | - | 119 W/m² | - |
| 1777935285 | 16.67° C | 41% | 1001.4 hPa | 0 mm | - | 128 W/m² | - |
| 1777934982 | 17.22° C | 37% | 1001.2 hPa | 0 mm | - | 145 W/m² | - |
| 1777934678 | 16.67° C | 42% | 1001 hPa | 0 mm | - | 195 W/m² | - |
| 1777934376 | 16.67° C | 40% | 1001.2 hPa | 0 mm | - | 209 W/m² | - |
| 1777934071 | 16.67° C | 44% | 1001.3 hPa | 0 mm | - | 200 W/m² | - |
* Rain latest hour (hover to see other rain measurements)
** Current wind speed in m/s (hover to see current wind gust speed)